РПИ Туркменбаши

Руководство

Evgeny Vygornitsky*

Куратор
Инструкторы РПИ
Evgeny Vygornitsky (Supervisor)
Vitaliy Alekseyev (Instructor)
Входит в состав
Центральная Азия

Диспетчеры РПИ

Диспетчер Рейтинг Допуски *

Аэропорты РПИ

ICAO Город Название Погода
UTAK Туркменбаши Туркменбаши UTAK 100900Z 09008KT CAVOK 06/M05 Q1028 R16R/CLRD70 NOSIG